Time;durP1;ratioP1;P1;durP2;ratioP2;P2;SDS_P1;SDS_P2;PMS_P1;PMS_P2;Temp;Humidity;BMP_temperature;BMP_pressure;BME280_temperature;BME280_humidity;BME280_pressure;Samples;Min_cycle;Max_cycle;Signal;HPM_P1;HPM_P2
2023/07/21 00:01:48;;;;;;;;;;;17.10;99.90;;;;;;6112456;23;20006;-70
2023/07/21 00:04:14;;;;;;;;;;;17.00;99.90;;;;;;6113125;23;20321;-70
2023/07/21 00:06:43;;;;;;;;;;;16.90;99.90;;;;;;6109882;23;19932;-70
2023/07/21 00:09:09;;;;;;;;;;;17.00;99.90;;;;;;6113918;23;19951;-70
2023/07/21 00:11:34;;;;;;;;;;;17.10;99.90;;;;;;6115934;23;19928;-70
2023/07/21 00:14:00;;;;;;;;;;;17.10;99.90;;;;;;6114363;23;19921;-70
2023/07/21 00:16:27;;;;;;;;;;;17.20;99.90;;;;;;6113551;23;19930;-69
2023/07/21 00:18:52;;;;;;;;;;;17.20;99.90;;;;;;6113880;23;19975;-70
2023/07/21 00:21:19;;;;;;;;;;;17.40;99.90;;;;;;6113627;23;20499;-69
2023/07/21 00:23:46;;;;;;;;;;;17.40;99.90;;;;;;6114914;23;20025;-69
2023/07/21 00:26:13;;;;;;;;;;;17.40;99.90;;;;;;6115084;23;19938;-69
2023/07/21 00:28:39;;;;;;;;;;;17.30;99.90;;;;;;6114591;23;19937;-69
2023/07/21 00:31:04;;;;;;;;;;;17.20;99.90;;;;;;6112602;23;19931;-69
2023/07/21 00:33:30;;;;;;;;;;;17.20;99.90;;;;;;6114918;23;19941;-70
2023/07/21 00:35:57;;;;;;;;;;;17.10;99.90;;;;;;6114633;23;19927;-70
2023/07/21 00:38:22;;;;;;;;;;;17.10;99.90;;;;;;6109349;23;20008;-69
2023/07/21 00:40:48;;;;;;;;;;;17.10;99.90;;;;;;6111242;23;20715;-69
2023/07/21 00:43:15;;;;;;;;;;;17.20;99.90;;;;;;6111244;23;20011;-69
2023/07/21 00:45:40;;;;;;;;;;;17.10;99.90;;;;;;6112539;23;19995;-69
2023/07/21 00:48:09;;;;;;;;;;;17.20;99.90;;;;;;6109515;23;19928;-69
2023/07/21 00:50:41;;;;;;;;;;;17.20;99.90;;;;;;6106667;23;20000;-70
2023/07/21 00:53:06;;;;;;;;;;;17.20;99.90;;;;;;6112734;23;20498;-70
2023/07/21 00:55:32;;;;;;;;;;;17.30;99.90;;;;;;6113643;23;19977;-70
2023/07/21 00:57:57;;;;;;;;;;;17.30;99.90;;;;;;6111973;23;19935;-70
2023/07/21 01:00:23;;;;;;;;;;;17.30;99.90;;;;;;6113287;23;19937;-70
2023/07/21 01:02:49;;;;;;;;;;;17.30;99.90;;;;;;6114728;23;19990;-70
2023/07/21 01:05:17;;;;;;;;;;;17.30;99.90;;;;;;6112363;23;20637;-70
2023/07/21 01:07:43;;;;;;;;;;;17.30;99.90;;;;;;6113509;23;19951;-70
2023/07/21 01:10:09;;;;;;;;;;;17.30;99.90;;;;;;6113455;23;20509;-70
2023/07/21 01:12:35;;;;;;;;;;;17.30;99.90;;;;;;6114258;23;19934;-70
2023/07/21 01:15:00;;;;;;;;;;;17.40;99.90;;;;;;6112755;23;20365;-70
2023/07/21 01:17:29;;;;;;;;;;;17.40;99.90;;;;;;6115919;23;20199;-70
2023/07/21 01:19:55;;;;;;;;;;;17.50;99.90;;;;;;6112510;23;19927;-70
2023/07/21 01:22:23;;;;;;;;;;;17.50;99.90;;;;;;6113634;23;19975;-71
2023/07/21 01:24:49;;;;;;;;;;;17.50;99.90;;;;;;6114142;23;20101;-71
2023/07/21 01:27:15;;;;;;;;;;;17.60;99.90;;;;;;6114172;23;20431;-70
2023/07/21 01:29:42;;;;;;;;;;;17.60;99.90;;;;;;6114418;23;20010;-70
2023/07/21 01:32:09;;;;;;;;;;;17.50;99.90;;;;;;6114716;23;19951;-71
2023/07/21 01:34:34;;;;;;;;;;;17.50;99.90;;;;;;6112398;23;20063;-71
2023/07/21 01:37:01;;;;;;;;;;;17.50;99.90;;;;;;6114857;23;20031;-70
2023/07/21 01:39:27;;;;;;;;;;;17.60;99.90;;;;;;6113504;23;20428;-71
2023/07/21 01:41:53;;;;;;;;;;;17.70;99.90;;;;;;6115117;23;19957;-71
2023/07/21 01:44:21;;;;;;;;;;;17.70;99.90;;;;;;6114208;23;19974;-71
2023/07/21 01:46:47;;;;;;;;;;;17.80;99.90;;;;;;6112691;23;19932;-70
2023/07/21 01:49:15;;;;;;;;;;;17.90;99.90;;;;;;6113774;23;19958;-71
2023/07/21 01:51:41;;;;;;;;;;;17.90;99.90;;;;;;6113037;23;20591;-70
2023/07/21 01:54:10;;;;;;;;;;;17.90;99.90;;;;;;6113940;23;20333;-71
2023/07/21 01:56:41;;;;;;;;;;;17.90;99.90;;;;;;6111765;23;19928;-70
2023/07/21 01:59:07;;;;;;;;;;;17.90;99.90;;;;;;6114690;23;19930;-71
2023/07/21 02:01:34;;;;;;;;;;;17.90;99.90;;;;;;6113801;23;19934;-71
2023/07/21 02:04:00;;;;;;;;;;;17.90;99.90;;;;;;6115225;23;20020;-71
2023/07/21 02:06:26;;;;;;;;;;;18.00;99.90;;;;;;6112852;23;19933;-70
2023/07/21 02:08:51;;;;;;;;;;;18.00;99.90;;;;;;6114848;23;20256;-70
2023/07/21 02:11:17;;;;;;;;;;;17.90;99.90;;;;;;6113596;23;19938;-69
2023/07/21 02:13:43;;;;;;;;;;;17.90;99.90;;;;;;6112508;23;19928;-69
2023/07/21 02:16:09;;;;;;;;;;;17.90;99.90;;;;;;6113105;23;19980;-69
2023/07/21 02:18:37;;;;;;;;;;;17.90;99.90;;;;;;6114520;23;20253;-69
2023/07/21 02:21:04;;;;;;;;;;;17.90;99.90;;;;;;6112927;23;19928;-69
2023/07/21 02:23:31;;;;;;;;;;;17.90;99.90;;;;;;6113822;23;19972;-69
2023/07/21 02:25:56;;;;;;;;;;;17.90;99.90;;;;;;6114814;23;20413;-69
2023/07/21 02:28:22;;;;;;;;;;;17.90;99.90;;;;;;6113038;23;19945;-69
2023/07/21 02:30:56;;;;;;;;;;;18.00;99.90;;;;;;6106938;23;20051;-69
2023/07/21 02:33:21;;;;;;;;;;;18.00;99.90;;;;;;6113836;23;19951;-69
2023/07/21 02:35:47;;;;;;;;;;;18.00;99.90;;;;;;6112298;23;19929;-68
2023/07/21 02:38:12;;;;;;;;;;;18.00;99.90;;;;;;6113870;23;19931;-70
2023/07/21 02:40:38;;;;;;;;;;;18.00;99.90;;;;;;6110030;23;19962;-69
2023/07/21 02:43:03;;;;;;;;;;;18.00;99.90;;;;;;6113656;23;20036;-70
2023/07/21 02:45:29;;;;;;;;;;;18.00;99.90;;;;;;6113267;23;19936;-69
2023/07/21 02:47:54;;;;;;;;;;;18.10;99.90;;;;;;6112561;23;19924;-70
2023/07/21 02:50:21;;;;;;;;;;;18.10;99.90;;;;;;6111069;23;19981;-70
2023/07/21 02:52:46;;;;;;;;;;;18.10;99.90;;;;;;6113465;23;19936;-69
2023/07/21 02:55:12;;;;;;;;;;;18.10;99.90;;;;;;6114868;23;19921;-70
2023/07/21 02:57:37;;;;;;;;;;;18.10;99.90;;;;;;6113745;23;20406;-70
2023/07/21 03:00:04;;;;;;;;;;;18.20;99.90;;;;;;6113292;23;19926;-70
2023/07/21 03:02:33;;;;;;;;;;;18.20;99.90;;;;;;6114125;23;19966;-69
2023/07/21 03:05:03;;;;;;;;;;;18.20;99.90;;;;;;6112263;23;20686;-69
2023/07/21 03:07:29;;;;;;;;;;;18.20;99.90;;;;;;6110860;23;19928;-69
2023/07/21 03:09:54;;;;;;;;;;;18.30;99.90;;;;;;6113190;23;20440;-69
2023/07/21 03:12:20;;;;;;;;;;;18.30;99.90;;;;;;6114252;23;19959;-69
2023/07/21 03:14:46;;;;;;;;;;;18.40;99.90;;;;;;6112557;23;19928;-69
2023/07/21 03:17:12;;;;;;;;;;;18.30;99.90;;;;;;6113899;23;19922;-69
2023/07/21 03:19:38;;;;;;;;;;;18.30;99.90;;;;;;6110862;23;19939;-69
2023/07/21 03:22:03;;;;;;;;;;;18.40;99.90;;;;;;6111450;23;20585;-69
2023/07/21 03:24:29;;;;;;;;;;;18.50;99.90;;;;;;6114182;23;19936;-69
2023/07/21 03:26:54;;;;;;;;;;;18.50;99.90;;;;;;6114708;23;19951;-69
2023/07/21 03:29:20;;;;;;;;;;;18.50;99.90;;;;;;6111080;23;19942;-69
2023/07/21 03:31:45;;;;;;;;;;;18.50;99.90;;;;;;6110830;23;19939;-69
2023/07/21 03:34:11;;;;;;;;;;;18.50;99.90;;;;;;6111238;23;20672;-69
2023/07/21 03:36:36;;;;;;;;;;;18.50;99.90;;;;;;6109461;23;20342;-69
2023/07/21 03:39:02;;;;;;;;;;;18.40;99.90;;;;;;6111649;23;20013;-69
2023/07/21 03:41:28;;;;;;;;;;;18.40;99.90;;;;;;6109645;23;20346;-69
2023/07/21 03:43:53;;;;;;;;;;;18.30;99.90;;;;;;6110637;23;19960;-69
2023/07/21 03:46:19;;;;;;;;;;;18.40;99.90;;;;;;6110033;23;19924;-69
2023/07/21 03:48:44;;;;;;;;;;;18.40;99.90;;;;;;6112317;23;20325;-69
2023/07/21 03:51:10;;;;;;;;;;;18.50;99.90;;;;;;6112341;23;20336;-69
2023/07/21 03:53:35;;;;;;;;;;;18.50;99.90;;;;;;6109898;23;19993;-68
2023/07/21 03:56:01;;;;;;;;;;;18.50;99.90;;;;;;6108619;23;19935;-70
2023/07/21 03:58:26;;;;;;;;;;;18.50;99.90;;;;;;6112621;23;19928;-68
2023/07/21 04:00:52;;;;;;;;;;;18.60;99.90;;;;;;6109733;23;20318;-68
2023/07/21 04:03:18;;;;;;;;;;;18.60;99.90;;;;;;6111253;23;19976;-69
2023/07/21 04:05:44;;;;;;;;;;;18.60;99.90;;;;;;6109018;23;20056;-69
2023/07/21 04:08:09;;;;;;;;;;;18.60;99.90;;;;;;6112856;23;20347;-69
2023/07/21 04:10:39;;;;;;;;;;;18.60;99.90;;;;;;6112057;23;20332;-68
2023/07/21 04:13:05;;;;;;;;;;;18.70;99.90;;;;;;6110211;23;19928;-69
2023/07/21 04:15:31;;;;;;;;;;;18.60;99.90;;;;;;6111207;23;19929;-69
2023/07/21 04:17:56;;;;;;;;;;;18.70;99.90;;;;;;6109891;23;19965;-68
2023/07/21 04:20:24;;;;;;;;;;;18.70;99.90;;;;;;6110613;23;19929;-69
2023/07/21 04:22:50;;;;;;;;;;;18.70;99.90;;;;;;6111727;23;19959;-69
2023/07/21 04:25:18;;;;;;;;;;;18.70;99.90;;;;;;6108675;23;19927;-69
2023/07/21 04:27:47;;;;;;;;;;;18.70;99.90;;;;;;6111547;23;20244;-69
2023/07/21 04:30:13;;;;;;;;;;;18.70;99.90;;;;;;6109890;23;20314;-69
2023/07/21 04:32:38;;;;;;;;;;;18.80;99.90;;;;;;6111770;23;20589;-69
2023/07/21 04:35:05;;;;;;;;;;;18.80;99.90;;;;;;6109851;23;20690;-69
2023/07/21 04:37:32;;;;;;;;;;;18.90;99.90;;;;;;6109824;23;19927;-70
2023/07/21 04:39:57;;;;;;;;;;;19.00;99.90;;;;;;6110739;23;19923;-69
2023/07/21 04:42:23;;;;;;;;;;;19.00;99.90;;;;;;6108385;23;19932;-71
2023/07/21 04:44:49;;;;;;;;;;;19.00;99.90;;;;;;6112238;23;20380;-70
2023/07/21 04:47:14;;;;;;;;;;;19.10;99.90;;;;;;6110445;23;19969;-69
2023/07/21 04:49:40;;;;;;;;;;;19.10;99.90;;;;;;6112977;23;20098;-69
2023/07/21 04:52:05;;;;;;;;;;;19.00;99.90;;;;;;6112541;23;20703;-69
2023/07/21 04:54:31;;;;;;;;;;;19.00;99.90;;;;;;6115205;23;19925;-69
2023/07/21 04:56:56;;;;;;;;;;;19.10;99.90;;;;;;6113214;23;19934;-70
2023/07/21 04:59:22;;;;;;;;;;;19.20;99.90;;;;;;6110353;23;19925;-70
2023/07/21 05:01:47;;;;;;;;;;;19.30;99.90;;;;;;6111466;23;20066;-69
2023/07/21 05:04:16;;;;;;;;;;;19.30;99.90;;;;;;6113240;23;19928;-70
2023/07/21 05:06:45;;;;;;;;;;;19.30;99.90;;;;;;6113619;23;19926;-69
2023/07/21 05:09:10;;;;;;;;;;;19.40;99.90;;;;;;6114055;23;19951;-69
2023/07/21 05:11:36;;;;;;;;;;;19.40;99.90;;;;;;6113620;23;19920;-69
2023/07/21 05:14:03;;;;;;;;;;;19.50;99.90;;;;;;6111678;23;19936;-69
2023/07/21 05:16:29;;;;;;;;;;;19.50;99.90;;;;;;6113085;23;19939;-69
2023/07/21 05:18:55;;;;;;;;;;;19.50;99.90;;;;;;6111793;23;19928;-70
2023/07/21 05:21:20;;;;;;;;;;;19.60;99.90;;;;;;6111785;23;19963;-70
2023/07/21 05:23:46;;;;;;;;;;;19.60;99.90;;;;;;6114379;23;19929;-69
2023/07/21 05:26:11;;;;;;;;;;;19.70;99.90;;;;;;6113479;23;20252;-70
2023/07/21 05:28:37;;;;;;;;;;;19.70;99.90;;;;;;6111922;23;20253;-70
2023/07/21 05:31:03;;;;;;;;;;;19.80;99.90;;;;;;6112764;23;19945;-70
2023/07/21 05:33:29;;;;;;;;;;;19.90;99.90;;;;;;6114284;23;19940;-70
2023/07/21 05:36:09;;;;;;;;;;;19.90;99.90;;;;;;6109201;23;19934;-70
2023/07/21 05:38:35;;;;;;;;;;;19.90;99.90;;;;;;6109163;23;19916;-70
2023/07/21 05:41:01;;;;;;;;;;;20.00;99.90;;;;;;6107304;23;20704;-70
2023/07/21 05:43:26;;;;;;;;;;;20.00;99.90;;;;;;6111016;23;20023;-70
2023/07/21 05:45:52;;;;;;;;;;;20.00;99.90;;;;;;6112705;23;20399;-70
2023/07/21 05:48:18;;;;;;;;;;;20.00;99.90;;;;;;6115282;23;20308;-70
2023/07/21 05:50:43;;;;;;;;;;;20.00;99.90;;;;;;6113123;23;19979;-70
2023/07/21 05:53:09;;;;;;;;;;;20.00;99.90;;;;;;6111964;23;19927;-70
2023/07/21 05:55:34;;;;;;;;;;;19.90;99.90;;;;;;6110242;23;19919;-69
2023/07/21 05:58:00;;;;;;;;;;;19.90;99.90;;;;;;6114454;23;19932;-69
2023/07/21 06:00:25;;;;;;;;;;;19.90;99.90;;;;;;6114173;23;19934;-69
2023/07/21 06:02:51;;;;;;;;;;;19.90;99.90;;;;;;6114387;23;20508;-70
2023/07/21 06:05:17;;;;;;;;;;;19.90;99.90;;;;;;6112757;23;19977;-69
2023/07/21 06:07:45;;;;;;;;;;;19.90;99.90;;;;;;6114433;23;19934;-70
2023/07/21 06:10:10;;;;;;;;;;;19.90;99.90;;;;;;6114084;23;20044;-70
2023/07/21 06:12:37;;;;;;;;;;;19.90;99.90;;;;;;6112775;23;19934;-70
2023/07/21 06:15:04;;;;;;;;;;;19.90;99.90;;;;;;6110150;23;19928;-70
2023/07/21 06:17:29;;;;;;;;;;;19.90;99.90;;;;;;6113322;23;19968;-74
2023/07/21 06:19:56;;;;;;;;;;;19.90;99.90;;;;;;6114395;23;19922;-77
2023/07/21 06:22:22;;;;;;;;;;;19.90;99.90;;;;;;6111942;23;19982;-69
2023/07/21 06:24:47;;;;;;;;;;;20.00;99.90;;;;;;6114940;23;19952;-69
2023/07/21 06:27:13;;;;;;;;;;;20.00;99.90;;;;;;6114464;23;20018;-74
2023/07/21 06:29:38;;;;;;;;;;;20.10;99.90;;;;;;6114106;23;19957;-70
2023/07/21 06:32:04;;;;;;;;;;;20.20;99.90;;;;;;6105075;23;19927;-69
2023/07/21 06:34:30;;;;;;;;;;;20.30;99.90;;;;;;6114430;23;19947;-70
2023/07/21 06:36:55;;;;;;;;;;;20.20;99.90;;;;;;6112311;23;19948;-70
2023/07/21 06:39:22;;;;;;;;;;;20.10;99.90;;;;;;6113622;23;20005;-70
2023/07/21 06:41:48;;;;;;;;;;;20.20;99.90;;;;;;6110991;23;20011;-73
2023/07/21 06:44:14;;;;;;;;;;;20.10;99.90;;;;;;6112050;23;19958;-72
2023/07/21 06:46:42;;;;;;;;;;;20.10;99.90;;;;;;6111097;23;20016;-73
2023/07/21 06:49:07;;;;;;;;;;;20.10;99.90;;;;;;6108439;23;19927;-72
2023/07/21 06:51:33;;;;;;;;;;;20.20;99.90;;;;;;6112982;23;19938;-74
2023/07/21 06:53:58;;;;;;;;;;;20.30;99.90;;;;;;6114253;23;20249;-74
2023/07/21 06:56:24;;;;;;;;;;;20.40;99.90;;;;;;6114503;23;19932;-74
2023/07/21 06:58:49;;;;;;;;;;;20.50;99.90;;;;;;6112210;23;19926;-74
2023/07/21 07:01:15;;;;;;;;;;;20.60;99.90;;;;;;6111118;23;19960;-70
2023/07/21 07:03:41;;;;;;;;;;;20.60;99.90;;;;;;6115359;23;19949;-70
2023/07/21 07:06:06;;;;;;;;;;;20.60;99.90;;;;;;6112722;23;19958;-70
2023/07/21 07:08:32;;;;;;;;;;;20.60;99.90;;;;;;6115147;23;19915;-70
2023/07/21 07:10:57;;;;;;;;;;;20.70;99.90;;;;;;6111755;23;19944;-71
2023/07/21 07:13:23;;;;;;;;;;;20.80;99.90;;;;;;6113470;23;20009;-71
2023/07/21 07:15:49;;;;;;;;;;;21.00;99.90;;;;;;6113189;23;20464;-70
2023/07/21 07:18:14;;;;;;;;;;;21.10;99.90;;;;;;6113668;23;19959;-70
2023/07/21 07:20:47;;;;;;;;;;;21.10;99.90;;;;;;6109875;23;19929;-70
2023/07/21 07:23:12;;;;;;;;;;;21.10;99.90;;;;;;6114369;23;20338;-70
2023/07/21 07:25:38;;;;;;;;;;;21.20;99.90;;;;;;6114346;23;19927;-70
2023/07/21 07:28:04;;;;;;;;;;;21.30;99.90;;;;;;6114158;23;19928;-70
2023/07/21 07:30:33;;;;;;;;;;;21.30;99.90;;;;;;6112942;23;19946;-70
2023/07/21 07:32:58;;;;;;;;;;;21.40;99.90;;;;;;6113474;23;19923;-71
2023/07/21 07:35:24;;;;;;;;;;;21.40;99.90;;;;;;6108494;23;20408;-71
2023/07/21 07:37:49;;;;;;;;;;;21.50;99.90;;;;;;6111130;23;20357;-70
2023/07/21 07:40:15;;;;;;;;;;;21.50;99.90;;;;;;6114638;23;19931;-70
2023/07/21 07:42:40;;;;;;;;;;;21.60;99.90;;;;;;6112196;23;20493;-70
2023/07/21 07:45:06;;;;;;;;;;;21.70;99.90;;;;;;6112887;23;20702;-70
2023/07/21 07:47:32;;;;;;;;;;;21.90;99.90;;;;;;6110502;23;20002;-70
2023/07/21 07:49:57;;;;;;;;;;;21.90;99.90;;;;;;6112037;23;20418;-71
2023/07/21 07:52:23;;;;;;;;;;;22.10;99.90;;;;;;6110399;23;20303;-71
2023/07/21 07:54:49;;;;;;;;;;;22.30;99.90;;;;;;6114151;23;19927;-75
2023/07/21 07:57:15;;;;;;;;;;;22.40;99.90;;;;;;6109221;23;19925;-74
2023/07/21 07:59:41;;;;;;;;;;;22.60;99.90;;;;;;6112084;23;19924;-74
2023/07/21 08:02:06;;;;;;;;;;;22.70;99.90;;;;;;6113509;23;20255;-73
2023/07/21 08:04:32;;;;;;;;;;;22.80;99.90;;;;;;6111317;23;19977;-74
2023/07/21 08:06:57;;;;;;;;;;;22.80;99.90;;;;;;6108368;23;19926;-74
2023/07/21 08:09:23;;;;;;;;;;;22.90;99.90;;;;;;6111622;23;19972;-74
2023/07/21 08:11:49;;;;;;;;;;;22.90;99.90;;;;;;6111933;23;19935;-73
2023/07/21 08:14:14;;;;;;;;;;;23.00;99.90;;;;;;6112494;23;19929;-74
2023/07/21 08:16:40;;;;;;;;;;;23.20;99.90;;;;;;6113744;23;20039;-74
2023/07/21 08:19:05;;;;;;;;;;;23.30;99.90;;;;;;6113553;23;20003;-74
2023/07/21 08:21:31;;;;;;;;;;;23.50;99.90;;;;;;6112362;23;20048;-73
2023/07/21 08:23:56;;;;;;;;;;;23.60;99.90;;;;;;6111182;23;19966;-74
2023/07/21 08:26:22;;;;;;;;;;;23.60;99.90;;;;;;6113709;23;20002;-71
2023/07/21 08:28:47;;;;;;;;;;;23.60;99.90;;;;;;6109952;23;19960;-73
2023/07/21 08:31:13;;;;;;;;;;;23.60;99.90;;;;;;6112737;23;20150;-73
2023/07/21 08:33:39;;;;;;;;;;;23.60;99.90;;;;;;6110147;23;19939;-74
2023/07/21 08:36:05;;;;;;;;;;;23.80;99.90;;;;;;6112779;23;20219;-73
2023/07/21 08:38:33;;;;;;;;;;;23.90;99.90;;;;;;6115206;23;19957;-73
2023/07/21 08:41:08;;;;;;;;;;;24.00;99.90;;;;;;6112931;23;19964;-72
2023/07/21 08:43:34;;;;;;;;;;;24.10;99.90;;;;;;6111673;23;19970;-73
2023/07/21 08:46:01;;;;;;;;;;;24.20;99.90;;;;;;6114412;23;19933;-73
2023/07/21 08:48:30;;;;;;;;;;;24.20;99.90;;;;;;6112079;23;19929;-74
2023/07/21 08:50:56;;;;;;;;;;;24.20;99.90;;;;;;6111522;23;20375;-72
2023/07/21 08:53:25;;;;;;;;;;;24.10;99.90;;;;;;6115669;23;19967;-73
2023/07/21 08:55:52;;;;;;;;;;;24.00;99.90;;;;;;6114289;23;20411;-72
2023/07/21 08:58:17;;;;;;;;;;;23.90;99.90;;;;;;6111369;23;19923;-73
2023/07/21 09:00:43;;;;;;;;;;;23.90;99.90;;;;;;6114791;23;19925;-73
2023/07/21 09:03:08;;;;;;;;;;;23.80;99.90;;;;;;6114660;23;20353;-73
2023/07/21 09:05:34;;;;;;;;;;;23.70;99.90;;;;;;6113105;23;19934;-72
2023/07/21 09:07:59;;;;;;;;;;;23.70;99.90;;;;;;6110774;23;19932;-72
2023/07/21 09:10:32;;;;;;;;;;;23.80;99.90;;;;;;6116020;23;19982;-73
2023/07/21 09:12:58;;;;;;;;;;;23.80;99.90;;;;;;6112906;23;19932;-72
2023/07/21 09:15:23;;;;;;;;;;;23.90;99.90;;;;;;6111353;23;19956;-73
2023/07/21 09:17:49;;;;;;;;;;;23.90;99.90;;;;;;6112128;23;19934;-72
2023/07/21 09:20:14;;;;;;;;;;;24.00;99.90;;;;;;6109104;23;19921;-73
2023/07/21 09:22:40;;;;;;;;;;;23.90;99.90;;;;;;6111913;23;19970;-72
2023/07/21 09:25:07;;;;;;;;;;;23.90;99.90;;;;;;6113811;23;19928;-72
2023/07/21 09:27:35;;;;;;;;;;;23.80;99.90;;;;;;6115721;23;19919;-72
2023/07/21 09:30:01;;;;;;;;;;;23.80;99.90;;;;;;6115108;23;19955;-72
2023/07/21 09:32:27;;;;;;;;;;;24.00;99.90;;;;;;6112717;23;19929;-72
2023/07/21 09:34:53;;;;;;;;;;;24.20;99.90;;;;;;6110984;23;19943;-73
2023/07/21 09:37:19;;;;;;;;;;;24.40;99.90;;;;;;6113692;23;19950;-73
2023/07/21 09:39:44;;;;;;;;;;;24.40;99.90;;;;;;6111673;23;20004;-73
2023/07/21 09:42:10;;;;;;;;;;;24.40;99.90;;;;;;6114370;23;20243;-73
2023/07/21 09:44:36;;;;;;;;;;;24.40;99.90;;;;;;6113764;23;19954;-73
2023/07/21 09:47:03;;;;;;;;;;;24.40;99.90;;;;;;6113185;23;19984;-72
2023/07/21 09:49:28;;;;;;;;;;;24.60;99.90;;;;;;6115635;23;20284;-72
2023/07/21 09:51:55;;;;;;;;;;;24.60;99.90;;;;;;6113130;23;19944;-71
2023/07/21 09:54:24;;;;;;;;;;;24.70;99.90;;;;;;6113787;23;19929;-72
2023/07/21 09:56:50;;;;;;;;;;;24.70;99.90;;;;;;6110474;23;20013;-71
2023/07/21 09:59:17;;;;;;;;;;;24.70;99.90;;;;;;6113120;23;19986;-71
2023/07/21 10:01:42;;;;;;;;;;;24.70;99.90;;;;;;6113817;23;19926;-72
2023/07/21 10:04:08;;;;;;;;;;;24.70;99.90;;;;;;6114963;23;19932;-71
2023/07/21 10:06:35;;;;;;;;;;;24.60;99.90;;;;;;6110341;23;20446;-73
2023/07/21 10:09:03;;;;;;;;;;;24.80;99.90;;;;;;6113351;23;19938;-72
2023/07/21 10:11:28;;;;;;;;;;;24.80;99.90;;;;;;6114115;23;19945;-72
2023/07/21 10:13:54;;;;;;;;;;;24.80;99.90;;;;;;6110835;23;20035;-72
2023/07/21 10:16:20;;;;;;;;;;;24.80;99.90;;;;;;6115051;23;19926;-73
2023/07/21 10:19:05;;;;;;;;;;;24.90;99.90;;;;;;6112788;23;20328;-71
2023/07/21 10:21:31;;;;;;;;;;;25.00;99.90;;;;;;6113352;23;19999;-71
2023/07/21 10:23:59;;;;;;;;;;;25.00;99.90;;;;;;6114197;23;19926;-70
2023/07/21 10:26:25;;;;;;;;;;;25.00;99.90;;;;;;6108097;23;19958;-70
2023/07/21 10:28:51;;;;;;;;;;;25.10;99.90;;;;;;6114934;23;19960;-70
2023/07/21 10:34:01;;;;;;;;;;;25.20;99.90;;;;;;6111715;23;20393;-70
2023/07/21 10:36:38;;;;;;;;;;;25.20;99.90;;;;;;6109956;23;19936;-70
2023/07/21 10:39:07;;;;;;;;;;;25.10;99.90;;;;;;6110200;23;20181;-71
2023/07/21 10:41:33;;;;;;;;;;;25.00;99.90;;;;;;6113629;23;19927;-70
2023/07/21 10:43:58;;;;;;;;;;;25.10;99.90;;;;;;6114049;23;19977;-70
2023/07/21 10:46:24;;;;;;;;;;;25.10;99.90;;;;;;6112838;23;19931;-70
2023/07/21 10:48:49;;;;;;;;;;;25.10;99.90;;;;;;6111656;23;19924;-70
2023/07/21 10:51:14;;;;;;;;;;;25.00;99.90;;;;;;6111632;23;19991;-70
2023/07/21 10:53:40;;;;;;;;;;;25.10;99.90;;;;;;6107219;23;20067;-69
2023/07/21 10:56:07;;;;;;;;;;;25.20;99.90;;;;;;6107414;23;19940;-70
2023/07/21 10:58:33;;;;;;;;;;;25.30;99.90;;;;;;6111398;23;20516;-69
2023/07/21 11:00:59;;;;;;;;;;;25.30;99.90;;;;;;6111737;23;20234;-70
2023/07/21 11:03:24;;;;;;;;;;;25.30;99.90;;;;;;6113154;23;20006;-69
2023/07/21 11:05:50;;;;;;;;;;;25.30;99.90;;;;;;6111993;23;20024;-69
2023/07/21 11:08:28;;;;;;;;;;;25.30;99.90;;;;;;6113159;23;19932;-70
2023/07/21 11:10:54;;;;;;;;;;;25.30;99.90;;;;;;6112468;23;19957;-71
2023/07/21 11:13:20;;;;;;;;;;;25.30;99.90;;;;;;6113947;23;19931;-71
2023/07/21 11:15:56;;;;;;;;;;;25.30;99.90;;;;;;6110192;23;20008;-71
2023/07/21 11:18:22;;;;;;;;;;;25.30;99.90;;;;;;6113752;23;19931;-71
2023/07/21 11:20:48;;;;;;;;;;;25.30;99.90;;;;;;6111993;23;19926;-70
2023/07/21 11:23:14;;;;;;;;;;;25.30;99.90;;;;;;6113402;23;20538;-70
2023/07/21 11:25:39;;;;;;;;;;;25.20;99.90;;;;;;6112306;23;19923;-70
2023/07/21 11:28:06;;;;;;;;;;;25.10;99.90;;;;;;6111293;23;19922;-70
2023/07/21 11:30:31;;;;;;;;;;;25.10;99.90;;;;;;6111458;23;19949;-70
2023/07/21 11:33:09;;;;;;;;;;;25.10;99.90;;;;;;6112182;23;19927;-70
2023/07/21 11:35:35;;;;;;;;;;;25.10;99.90;;;;;;6109718;23;19926;-70
2023/07/21 11:38:00;;;;;;;;;;;25.10;99.90;;;;;;6110305;23;19934;-76
2023/07/21 11:40:26;;;;;;;;;;;25.10;99.90;;;;;;6111813;23;20691;-75
2023/07/21 11:42:54;;;;;;;;;;;25.10;99.90;;;;;;6107593;23;20036;-75
2023/07/21 11:45:37;;;;;;;;;;;25.10;99.90;;;;;;6111004;23;19929;-75
2023/07/21 11:48:14;;;;;;;;;;;25.10;99.90;;;;;;6111617;23;19935;-75
2023/07/21 11:51:00;;;;;;;;;;;25.10;99.90;;;;;;6111882;23;19948;-75
2023/07/21 11:53:26;;;;;;;;;;;25.10;99.90;;;;;;6111160;23;19928;-75
2023/07/21 11:55:52;;;;;;;;;;;25.10;99.90;;;;;;6113365;23;20499;-74
2023/07/21 11:58:17;;;;;;;;;;;25.10;99.90;;;;;;6113131;23;20033;-76
2023/07/21 12:00:43;;;;;;;;;;;25.00;99.90;;;;;;6111770;23;19994;-76
2023/07/21 12:03:09;;;;;;;;;;;24.90;99.90;;;;;;6110399;23;19949;-76
2023/07/21 12:05:35;;;;;;;;;;;24.80;99.90;;;;;;6111370;23;19928;-76
2023/07/21 12:08:01;;;;;;;;;;;24.80;99.90;;;;;;6110989;23;20008;-77
2023/07/21 12:10:26;;;;;;;;;;;24.70;99.90;;;;;;6111785;23;19966;-77
2023/07/21 12:12:53;;;;;;;;;;;24.60;99.90;;;;;;6110969;23;19925;-77
2023/07/21 12:15:18;;;;;;;;;;;24.40;99.90;;;;;;6110595;23;19923;-77
2023/07/21 12:17:45;;;;;;;;;;;24.30;99.90;;;;;;6112334;23;19931;-77
2023/07/21 12:20:11;;;;;;;;;;;24.10;99.90;;;;;;6107729;23;19993;-76
2023/07/21 12:22:38;;;;;;;;;;;24.00;99.90;;;;;;6111288;23;19924;-76
2023/07/21 12:25:04;;;;;;;;;;;23.90;99.90;;;;;;6110658;23;19925;-77
2023/07/21 12:27:29;;;;;;;;;;;23.70;99.90;;;;;;6106969;23;19938;-76
2023/07/21 12:29:55;;;;;;;;;;;23.60;99.90;;;;;;6111076;23;19974;-76
2023/07/21 12:32:20;;;;;;;;;;;23.50;99.90;;;;;;6112994;23;19923;-77
2023/07/21 12:34:45;;;;;;;;;;;23.40;99.90;;;;;;6112401;23;19941;-77
2023/07/21 12:37:11;;;;;;;;;;;23.20;99.90;;;;;;6112928;23;20673;-76
2023/07/21 12:39:37;;;;;;;;;;;23.10;99.90;;;;;;6108952;23;19930;-75
2023/07/21 12:42:02;;;;;;;;;;;23.00;99.90;;;;;;6113171;23;19937;-76
2023/07/21 12:44:28;;;;;;;;;;;22.90;99.90;;;;;;6113678;23;20640;-75
2023/07/21 12:46:53;;;;;;;;;;;22.70;99.90;;;;;;6113450;23;20066;-75
2023/07/21 12:49:18;;;;;;;;;;;22.40;99.90;;;;;;6112168;23;19930;-77
2023/07/21 12:51:44;;;;;;;;;;;22.20;99.90;;;;;;6112783;23;19929;-78
2023/07/21 12:54:10;;;;;;;;;;;22.20;99.90;;;;;;6108209;23;19933;-77
2023/07/21 12:56:35;;;;;;;;;;;22.20;99.90;;;;;;6112538;23;19934;-77
2023/07/21 12:59:01;;;;;;;;;;;22.10;99.90;;;;;;6110653;23;20013;-77
2023/07/21 13:01:26;;;;;;;;;;;22.00;99.90;;;;;;6109588;23;20398;-77
2023/07/21 13:03:52;;;;;;;;;;;21.90;99.90;;;;;;6111029;23;19924;-77
2023/07/21 13:06:17;;;;;;;;;;;21.80;99.90;;;;;;6108456;23;19929;-76
2023/07/21 13:08:43;;;;;;;;;;;21.70;99.90;;;;;;6109170;23;20681;-77
2023/07/21 13:11:08;;;;;;;;;;;21.70;99.90;;;;;;6109276;23;20328;-77
2023/07/21 13:13:34;;;;;;;;;;;21.70;99.90;;;;;;6107017;23;19933;-77
2023/07/21 13:15:59;;;;;;;;;;;21.60;99.90;;;;;;6108017;23;20600;-75
2023/07/21 13:18:25;;;;;;;;;;;21.60;99.90;;;;;;6111031;23;20299;-75
2023/07/21 13:20:51;;;;;;;;;;;21.50;99.90;;;;;;6110091;23;19923;-75
2023/07/21 13:23:16;;;;;;;;;;;21.50;99.90;;;;;;6111376;23;19956;-75
2023/07/21 13:25:43;;;;;;;;;;;21.50;99.90;;;;;;6114027;23;19947;-77
2023/07/21 13:28:08;;;;;;;;;;;21.50;99.90;;;;;;6113819;23;20501;-76
2023/07/21 13:30:34;;;;;;;;;;;21.50;99.90;;;;;;6110240;23;20038;-76
2023/07/21 13:33:00;;;;;;;;;;;21.50;99.90;;;;;;6113796;23;20284;-76
2023/07/21 13:35:26;;;;;;;;;;;21.50;99.90;;;;;;6108013;23;20360;-74
2023/07/21 13:37:52;;;;;;;;;;;21.40;99.90;;;;;;6106907;23;20608;-75
2023/07/21 13:40:18;;;;;;;;;;;21.50;99.90;;;;;;6107363;23;19929;-76
2023/07/21 13:42:43;;;;;;;;;;;21.50;99.90;;;;;;6112332;23;20173;-75
2023/07/21 13:45:09;;;;;;;;;;;21.40;99.90;;;;;;6115097;23;19991;-76
2023/07/21 13:47:35;;;;;;;;;;;21.20;99.90;;;;;;6112907;23;19928;-76
2023/07/21 13:50:00;;;;;;;;;;;21.10;99.90;;;;;;6111711;23;20686;-75
2023/07/21 13:52:27;;;;;;;;;;;21.10;99.90;;;;;;6112350;23;20367;-74
2023/07/21 13:54:52;;;;;;;;;;;21.20;99.90;;;;;;6113051;23;19927;-75
2023/07/21 13:57:18;;;;;;;;;;;21.30;99.90;;;;;;6112532;23;20260;-74
2023/07/21 13:59:44;;;;;;;;;;;21.30;99.90;;;;;;6112072;23;19928;-74
2023/07/21 14:02:09;;;;;;;;;;;21.30;99.90;;;;;;6108621;23;19978;-74
2023/07/21 14:04:35;;;;;;;;;;;21.40;99.90;;;;;;6112378;23;19977;-75
2023/07/21 14:07:01;;;;;;;;;;;21.40;99.90;;;;;;6105642;23;19932;-75
2023/07/21 14:09:27;;;;;;;;;;;21.40;99.90;;;;;;6105862;23;19927;-74
2023/07/21 14:11:53;;;;;;;;;;;21.50;99.90;;;;;;6111909;23;19935;-74
2023/07/21 14:14:18;;;;;;;;;;;21.50;99.90;;;;;;6111226;23;19953;-75